createdAt,value
2022-10-18T00:00:52.135Z,147011.97
2022-10-18T00:03:19.147Z,147102.25
2022-10-18T00:05:47.947Z,147124.22
2022-10-18T00:08:16.169Z,147037.59
2022-10-18T00:10:43.340Z,147082.75
2022-10-18T00:13:10.544Z,147124.22
2022-10-18T00:15:37.735Z,147129.09
2022-10-18T00:18:04.730Z,147046.16
2022-10-18T00:20:31.945Z,147126.66
2022-10-18T00:22:58.939Z,147116.88
2022-10-18T00:25:25.967Z,147105.94
2022-10-18T00:27:52.972Z,147104.66
2022-10-18T00:30:20.014Z,147038.81
2022-10-18T00:32:47.010Z,147094.91
2022-10-18T00:35:13.982Z,147116.88
2022-10-18T00:37:40.974Z,147102.25
2022-10-18T00:40:08.605Z,147112.00
2022-10-18T00:42:37.492Z,147119.34
2022-10-18T00:45:16.021Z,147092.50
2022-10-18T00:47:48.007Z,147116.88
2022-10-18T00:50:15.296Z,147003.44
2022-10-18T00:52:53.371Z,147092.50
2022-10-18T00:55:21.132Z,147029.06
2022-10-18T00:57:49.266Z,146990.00
2022-10-18T01:00:17.119Z,147129.09
2022-10-18T01:02:46.395Z,147124.22
2022-10-18T01:05:15.676Z,147127.91
2022-10-18T01:07:42.608Z,147130.31
2022-10-18T01:10:25.497Z,147133.97
2022-10-18T01:13:23.392Z,147132.78
2022-10-18T01:16:10.869Z,147131.53
2022-10-18T01:18:48.526Z,147041.28
2022-10-18T01:21:25.004Z,146985.09
2022-10-18T01:24:09.155Z,147108.34
2022-10-18T01:27:03.805Z,147107.13
2022-10-18T01:29:47.459Z,147058.31
2022-10-18T01:32:21.571Z,147104.66
2022-10-18T01:34:53.197Z,147044.91
2022-10-18T01:37:22.470Z,147058.31
2022-10-18T01:39:54.248Z,147094.91
2022-10-18T01:42:21.513Z,147077.88
2022-10-18T01:44:51.883Z,147070.53
2022-10-18T01:47:20.595Z,147082.75
2022-10-18T01:49:47.613Z,147102.25
2022-10-18T01:52:16.140Z,147051.03
2022-10-18T01:54:48.968Z,147083.97
2022-10-18T01:57:45.785Z,147080.28
2022-10-18T02:00:16.805Z,147080.28
2022-10-18T02:02:55.067Z,147058.31
2022-10-18T02:05:44.615Z,147085.16
2022-10-18T02:08:26.214Z,147094.91
2022-10-18T02:11:00.376Z,147097.38
2022-10-18T02:13:32.171Z,147104.66
2022-10-18T02:16:07.618Z,147066.88
2022-10-18T02:18:39.581Z,147030.28
2022-10-18T02:21:10.872Z,147099.78
2022-10-18T02:23:38.830Z,147087.63
2022-10-18T02:26:06.687Z,147063.19
2022-10-18T02:28:33.914Z,147070.53
2022-10-18T02:31:13.907Z,147099.78
2022-10-18T02:33:56.535Z,147020.50
2022-10-18T02:37:02.392Z,147107.13
2022-10-18T02:39:32.343Z,147097.38
2022-10-18T02:41:59.827Z,147093.72
2022-10-18T02:44:27.405Z,147097.38
2022-10-18T02:46:54.529Z,147096.16
2022-10-18T02:49:21.701Z,147097.38
2022-10-18T02:51:48.687Z,147097.38
2022-10-18T02:54:16.036Z,147099.78
2022-10-18T02:56:43.037Z,147107.13
2022-10-18T02:59:11.192Z,147103.47
2022-10-18T03:01:38.334Z,147110.81
2022-10-18T03:04:05.872Z,147109.59
2022-10-18T03:06:33.357Z,147009.56
2022-10-18T03:09:03.314Z,147059.56
2022-10-18T03:11:30.597Z,147021.72
2022-10-18T03:13:57.823Z,147077.88
2022-10-18T03:16:24.895Z,147092.50
2022-10-18T03:18:51.917Z,147069.31
2022-10-18T03:21:18.991Z,147107.13
2022-10-18T03:23:45.985Z,147099.78
2022-10-18T03:26:12.972Z,147101.06
2022-10-18T03:28:40.022Z,147077.88
2022-10-18T03:31:07.087Z,147097.38
2022-10-18T03:33:34.223Z,147109.59
2022-10-18T03:36:01.240Z,147004.69
2022-10-18T03:38:28.489Z,147048.56
2022-10-18T03:40:55.618Z,147010.78
2022-10-18T03:43:22.995Z,147071.75
2022-10-18T03:45:50.327Z,147109.59
2022-10-18T03:48:17.320Z,147097.38
2022-10-18T03:50:44.470Z,147102.25
2022-10-18T03:53:11.598Z,147007.09
2022-10-18T03:55:38.755Z,147083.97
2022-10-18T03:58:06.178Z,147098.59
2022-10-18T04:00:33.333Z,147087.63
2022-10-18T04:03:00.427Z,147104.66
2022-10-18T04:05:30.584Z,147097.38
2022-10-18T04:07:58.268Z,147051.03
2022-10-18T04:10:25.574Z,147094.91
2022-10-18T04:12:52.704Z,147097.38
2022-10-18T04:15:19.798Z,147008.31
2022-10-18T04:17:47.186Z,147094.91
2022-10-18T04:20:14.375Z,147014.44
2022-10-18T04:22:41.495Z,147047.38
2022-10-18T04:25:08.623Z,147087.63
2022-10-18T04:27:36.175Z,147024.19
2022-10-18T04:30:03.984Z,147081.50
2022-10-18T04:32:30.985Z,147097.38
2022-10-18T04:34:58.006Z,147116.88
2022-10-18T04:37:25.037Z,147057.13
2022-10-18T04:39:53.667Z,147103.47
2022-10-18T04:42:22.048Z,147082.75
2022-10-18T04:44:49.284Z,147094.91
2022-10-18T04:47:17.301Z,147065.66
2022-10-18T04:49:44.343Z,146955.84
2022-10-18T04:52:11.746Z,147026.59
2022-10-18T04:54:38.742Z,147019.31
2022-10-18T04:57:06.067Z,147058.31
2022-10-18T04:59:33.068Z,147022.97
2022-10-18T05:02:00.211Z,147002.22
2022-10-18T05:04:27.580Z,147002.22
2022-10-18T05:06:54.580Z,147073.00
2022-10-18T05:09:24.538Z,147085.16
2022-10-18T05:11:51.653Z,147075.41
2022-10-18T05:14:18.893Z,147002.22
2022-10-18T05:16:45.885Z,147058.31
2022-10-18T05:19:12.954Z,147055.91
2022-10-18T05:21:40.143Z,147031.47
2022-10-18T05:24:07.253Z,147027.84
2022-10-18T05:26:34.383Z,147073.00
2022-10-18T05:29:01.666Z,147038.81
2022-10-18T05:31:28.775Z,147029.06
2022-10-18T05:33:55.979Z,147048.56
2022-10-18T05:36:23.103Z,146957.03
2022-10-18T05:38:50.347Z,146977.78
2022-10-18T05:41:17.479Z,147057.13
2022-10-18T05:43:44.523Z,146960.72
2022-10-18T05:46:15.493Z,147051.03
2022-10-18T05:48:44.521Z,147038.81
2022-10-18T05:51:11.943Z,147038.81
2022-10-18T05:53:39.003Z,147031.47
2022-10-18T05:56:07.178Z,147035.16
2022-10-18T05:58:34.829Z,146977.78
2022-10-18T06:01:04.097Z,147036.41
2022-10-18T06:03:31.384Z,146983.88
2022-10-18T06:06:03.715Z,147051.03
2022-10-18T06:08:32.755Z,147073.00
2022-10-18T06:10:59.859Z,147003.44
2022-10-18T06:13:28.205Z,147051.03
2022-10-18T06:15:57.556Z,147046.16
2022-10-18T06:18:24.860Z,147060.78
2022-10-18T06:20:59.483Z,147059.56
2022-10-18T06:23:28.042Z,147054.69
2022-10-18T06:26:03.062Z,146963.16
2022-10-18T06:28:30.669Z,147033.94
2022-10-18T06:30:58.306Z,147032.72
2022-10-18T06:33:25.637Z,147011.97
2022-10-18T06:36:22.027Z,146931.47
2022-10-18T06:38:49.499Z,147008.31
2022-10-18T06:41:17.864Z,147026.59
2022-10-18T06:43:53.028Z,147019.31
2022-10-18T06:46:20.266Z,147048.56
2022-10-18T06:48:47.321Z,147009.56
2022-10-18T06:51:15.339Z,147030.28
2022-10-18T06:53:44.401Z,147070.53
2022-10-18T06:56:20.422Z,147068.06
2022-10-18T06:58:47.583Z,147073.00
2022-10-18T07:01:16.736Z,147092.50
2022-10-18T07:03:45.519Z,147097.38
2022-10-18T07:06:14.750Z,147076.63
2022-10-18T07:08:41.953Z,147075.41
2022-10-18T07:11:15.001Z,147090.03
2022-10-18T07:13:42.307Z,147073.00
2022-10-18T07:16:17.400Z,147062.00
2022-10-18T07:18:49.547Z,147007.09
2022-10-18T07:21:21.196Z,147099.78
2022-10-18T07:23:49.119Z,147097.38
2022-10-18T07:26:31.307Z,147090.03
2022-10-18T07:29:01.828Z,147099.78
2022-10-18T07:31:29.318Z,147091.28
2022-10-18T07:33:56.654Z,147114.47
2022-10-18T07:36:24.561Z,147119.34
2022-10-18T07:38:52.567Z,147064.44
2022-10-18T07:41:21.090Z,147114.47
2022-10-18T07:43:50.961Z,147133.97
2022-10-18T07:46:19.838Z,147142.53
2022-10-18T07:48:47.499Z,147129.09
2022-10-18T07:51:15.065Z,147146.19
2022-10-18T07:53:42.206Z,147163.25
2022-10-18T07:56:16.198Z,147182.81
2022-10-18T07:58:44.454Z,147131.53
2022-10-18T08:01:12.322Z,147021.72
2022-10-18T08:03:40.134Z,147155.97
2022-10-18T08:06:09.604Z,147116.88
2022-10-18T08:08:38.096Z,147177.88
2022-10-18T08:11:07.240Z,147185.22
2022-10-18T08:13:34.366Z,147165.72
2022-10-18T08:16:06.966Z,147206.00
2022-10-18T08:18:33.991Z,147237.72
2022-10-18T08:21:02.377Z,147173.00
2022-10-18T08:23:29.644Z,147258.50
2022-10-18T08:25:56.817Z,147246.28
2022-10-18T08:28:23.944Z,147223.03
2022-10-18T08:30:50.982Z,147285.34
2022-10-18T08:33:17.967Z,147350.03
2022-10-18T08:35:54.959Z,147309.75
2022-10-18T08:38:21.959Z,147292.69
2022-10-18T08:40:49.035Z,147295.13
2022-10-18T08:43:26.527Z,147318.31
2022-10-18T08:45:54.550Z,147224.28
2022-10-18T08:48:27.344Z,147300.00
2022-10-18T08:50:57.513Z,147319.50
2022-10-18T08:53:30.041Z,147390.34
2022-10-18T08:56:14.466Z,147358.59
2022-10-18T08:58:46.554Z,147394.03
2022-10-18T09:01:28.581Z,147356.13
2022-10-18T09:04:25.681Z,147361.03
2022-10-18T09:07:04.665Z,147387.88
2022-10-18T09:09:43.587Z,147412.34
2022-10-18T09:12:16.730Z,147400.09
2022-10-18T09:15:04.425Z,147468.50
2022-10-18T09:18:01.886Z,147358.59
2022-10-18T09:20:36.206Z,147483.13
2022-10-18T09:23:17.011Z,147379.34
2022-10-18T09:26:06.410Z,147458.72
2022-10-18T09:28:50.162Z,147519.81
2022-10-18T09:31:21.357Z,147502.72
2022-10-18T09:34:02.987Z,147483.13
2022-10-18T09:36:37.154Z,147512.53
2022-10-18T09:39:16.282Z,147594.31
2022-10-18T09:42:04.991Z,147598.00
2022-10-18T09:44:37.937Z,147601.66
2022-10-18T09:47:16.819Z,147642.00
2022-10-18T09:49:52.062Z,147712.84
2022-10-18T09:52:25.479Z,147733.69
2022-10-18T09:55:13.194Z,147797.25
2022-10-18T09:57:48.911Z,147864.44
2022-10-18T10:00:22.645Z,147888.94
2022-10-18T10:02:49.656Z,147907.28
2022-10-18T10:05:16.760Z,147881.56
2022-10-18T10:07:45.644Z,147731.22
2022-10-18T10:10:24.936Z,147830.25
2022-10-18T10:13:22.906Z,147741.00
2022-10-18T10:15:59.904Z,147678.66
2022-10-18T10:18:38.011Z,147695.78
2022-10-18T10:21:15.018Z,147678.66
2022-10-18T10:23:56.936Z,147707.97
2022-10-18T10:26:35.053Z,147681.06
2022-10-18T10:29:02.197Z,147782.53
2022-10-18T10:31:31.039Z,147754.44
2022-10-18T10:34:05.037Z,147811.91
2022-10-18T10:36:33.396Z,147776.44
2022-10-18T10:39:18.255Z,147763.00
2022-10-18T10:41:54.251Z,147744.66
2022-10-18T10:44:28.441Z,147754.44
2022-10-18T10:46:56.982Z,147753.22
2022-10-18T10:49:39.629Z,147730.00
2022-10-18T10:52:26.703Z,147778.91
2022-10-18T10:55:05.756Z,147742.25
2022-10-18T10:57:38.467Z,147710.44
2022-10-18T11:00:05.827Z,147681.06
2022-10-18T11:02:35.550Z,147600.47
2022-10-18T11:05:22.700Z,147710.44
2022-10-18T11:07:55.139Z,147791.09
2022-10-18T11:10:28.122Z,147837.53
2022-10-18T11:13:23.099Z,147844.91
2022-10-18T11:16:10.033Z,147731.22
2022-10-18T11:18:37.766Z,147715.31
2022-10-18T11:21:16.638Z,147781.34
2022-10-18T11:23:45.017Z,147829.03
2022-10-18T11:26:11.956Z,147849.78
2022-10-18T11:29:03.418Z,147818.00
2022-10-18T11:31:38.276Z,147866.91
2022-10-18T11:34:25.370Z,147859.56
2022-10-18T11:37:39.258Z,147871.81
2022-10-18T11:40:56.085Z,147950.09
2022-10-18T11:44:01.689Z,148023.47
2022-10-18T11:46:59.077Z,148061.38
2022-10-18T11:49:57.649Z,148074.81
2022-10-18T11:52:56.754Z,148074.81
2022-10-18T11:55:47.029Z,148011.22
2022-10-18T11:58:36.297Z,148087.06
2022-10-18T12:01:28.627Z,148025.94
2022-10-18T12:04:14.369Z,147899.91
2022-10-18T12:06:45.075Z,147805.81
2022-10-18T12:09:32.558Z,147798.47
2022-10-18T12:12:11.025Z,147769.16
2022-10-18T12:14:49.039Z,147796.00
2022-10-18T12:17:50.045Z,147693.31
2022-10-18T12:20:23.435Z,147778.91
2022-10-18T12:22:56.761Z,147805.81
2022-10-18T12:25:24.798Z,147825.34
2022-10-18T12:28:09.193Z,147829.03
2022-10-18T12:30:47.209Z,147848.56
2022-10-18T12:33:28.807Z,147769.16
2022-10-18T12:36:19.035Z,147840.00
2022-10-18T12:38:49.900Z,147777.66
2022-10-18T12:41:21.844Z,147849.78
2022-10-18T12:44:02.950Z,147876.69
2022-10-18T12:46:52.017Z,147837.53
2022-10-18T12:49:27.612Z,147815.59
2022-10-18T12:51:59.302Z,147805.81
2022-10-18T12:54:34.618Z,147791.09
2022-10-18T12:57:04.281Z,147798.47
2022-10-18T12:59:31.203Z,147842.47
2022-10-18T13:01:58.229Z,147803.34
2022-10-18T13:04:28.182Z,147877.91
2022-10-18T13:07:02.802Z,147888.94
2022-10-18T13:09:35.277Z,147935.38
2022-10-18T13:12:11.167Z,147972.13
2022-10-18T13:15:25.333Z,147957.44
2022-10-18T13:18:10.508Z,147956.19
2022-10-18T13:20:43.847Z,147907.28
2022-10-18T13:23:31.603Z,147919.47
2022-10-18T13:26:11.056Z,147864.44
2022-10-18T13:28:42.749Z,147945.22
2022-10-18T13:31:28.390Z,147939.09
2022-10-18T13:33:55.878Z,148007.59
2022-10-18T13:36:25.287Z,147969.66
2022-10-18T13:38:58.243Z,148073.63
2022-10-18T13:41:32.903Z,148069.94
2022-10-18T13:44:34.326Z,148072.41
2022-10-18T13:47:04.039Z,148029.56
2022-10-18T13:49:38.308Z,147908.47
2022-10-18T13:52:37.661Z,147923.16
2022-10-18T13:55:38.371Z,147954.97
2022-10-18T13:58:15.632Z,147986.78
2022-10-18T14:00:53.666Z,147972.13
2022-10-18T14:03:55.629Z,147984.31
2022-10-18T14:06:23.494Z,147931.72
2022-10-18T14:12:16.570Z,147925.59
2022-10-18T14:14:47.997Z,147904.81
2022-10-18T14:17:42.350Z,147862.03
2022-10-18T14:20:29.505Z,147842.47
2022-10-18T14:23:12.145Z,147783.81
2022-10-18T14:25:39.212Z,147712.84
2022-10-18T14:28:12.223Z,147709.19
2022-10-18T14:31:02.001Z,147712.84
2022-10-18T14:33:37.884Z,147706.75
2022-10-18T14:36:20.154Z,147711.63
2022-10-18T14:38:49.425Z,147758.13
2022-10-18T14:41:17.960Z,147717.78
2022-10-18T14:43:46.450Z,147813.13
2022-10-18T14:46:28.964Z,147869.34
2022-10-18T14:49:01.084Z,147913.38
2022-10-18T14:51:35.606Z,147928.03
2022-10-18T14:54:03.247Z,147896.25
2022-10-18T14:56:36.286Z,147849.78
2022-10-18T14:59:09.674Z,147862.03
2022-10-18T15:01:36.807Z,147866.91
2022-10-18T15:04:08.041Z,147788.69
2022-10-18T15:06:35.216Z,147778.91
2022-10-18T15:09:04.309Z,147710.44
2022-10-18T15:11:31.817Z,147698.19
2022-10-18T15:14:06.815Z,147733.69
2022-10-18T15:16:38.274Z,147745.88
2022-10-18T15:19:30.017Z,147748.34
2022-10-18T15:22:30.729Z,147710.44
2022-10-18T15:29:02.852Z,147683.53
2022-10-18T15:31:36.657Z,147664.00
2022-10-18T15:34:15.323Z,147662.75
2022-10-18T15:39:16.279Z,147678.66
2022-10-18T15:41:57.206Z,147662.75
2022-10-18T15:44:31.506Z,147656.66
2022-10-18T15:47:13.456Z,147646.88
2022-10-18T15:49:46.242Z,147683.53
2022-10-18T15:52:28.221Z,147610.22
2022-10-18T15:54:56.148Z,147560.16
2022-10-18T15:57:26.668Z,147571.13
2022-10-18T16:00:07.333Z,147522.28
2022-10-18T16:02:40.016Z,147473.38
2022-10-18T16:05:16.710Z,147452.59
2022-10-18T16:07:43.718Z,147439.22
2022-10-18T16:10:14.645Z,147331.72
2022-10-18T16:12:41.702Z,147391.56
2022-10-18T16:15:09.444Z,147375.72
2022-10-18T16:17:36.488Z,147370.81
2022-10-18T16:20:04.551Z,147369.56
2022-10-18T16:22:34.716Z,147363.47
2022-10-18T16:25:04.220Z,147364.69
2022-10-18T16:27:31.208Z,147364.69
2022-10-18T16:29:58.233Z,147356.13
2022-10-18T16:32:25.292Z,147325.66
2022-10-18T16:34:52.335Z,147297.56
2022-10-18T16:37:19.376Z,147260.97
2022-10-18T16:39:46.351Z,147191.31
2022-10-18T16:42:13.332Z,147260.97
2022-10-18T16:44:40.345Z,147258.50
2022-10-18T16:47:07.385Z,147246.28
2022-10-18T16:49:34.682Z,147221.84
2022-10-18T16:52:01.739Z,147192.56
2022-10-18T16:54:28.885Z,147223.03
2022-10-18T16:56:55.889Z,147219.41
2022-10-18T16:59:29.219Z,147209.63
2022-10-18T17:01:56.406Z,147184.00
2022-10-18T17:04:23.498Z,147168.13
2022-10-18T17:06:51.312Z,147148.63
2022-10-18T17:09:18.323Z,147135.19
2022-10-18T17:11:45.336Z,147130.31
2022-10-18T17:14:12.348Z,147119.34
2022-10-18T17:16:39.352Z,147099.78
2022-10-18T17:19:08.100Z,146993.69
2022-10-18T17:21:35.256Z,147070.53
2022-10-18T17:24:04.168Z,146972.91
2022-10-18T17:26:32.475Z,146955.84
2022-10-18T17:29:02.911Z,146998.56
2022-10-18T17:31:31.334Z,146985.09
2022-10-18T17:34:01.310Z,146953.38
2022-10-18T17:36:29.618Z,146921.72
2022-10-18T17:38:56.699Z,146880.22
2022-10-18T17:41:23.884Z,146887.53
2022-10-18T17:43:50.957Z,146863.19
2022-10-18T17:46:19.338Z,146858.31
2022-10-18T17:48:46.857Z,146846.09
2022-10-18T17:51:16.472Z,146820.47
2022-10-18T17:53:43.833Z,146815.59
2022-10-18T17:56:11.676Z,146808.31
2022-10-18T17:58:39.091Z,146698.56
2022-10-18T18:01:18.613Z,146743.72
2022-10-18T18:03:47.698Z,146691.22
2022-10-18T18:06:19.393Z,146660.75
2022-10-18T18:08:47.146Z,146642.47
2022-10-18T18:11:14.785Z,146556.00
2022-10-18T18:13:42.334Z,146604.72
2022-10-18T18:16:11.368Z,146598.66
2022-10-18T18:18:41.186Z,146580.38
2022-10-18T18:21:08.657Z,146564.50
2022-10-18T18:23:35.705Z,146535.28
2022-10-18T18:26:03.613Z,146534.09
2022-10-18T18:28:30.794Z,146448.81
2022-10-18T18:30:57.905Z,146501.19
2022-10-18T18:33:24.905Z,146469.53
2022-10-18T18:35:56.850Z,146490.22
2022-10-18T18:38:24.317Z,146474.41
2022-10-18T18:41:06.058Z,146443.94
2022-10-18T18:43:34.065Z,146475.59
2022-10-18T18:46:01.342Z,146469.53
2022-10-18T18:48:30.807Z,146448.81
2022-10-18T18:50:57.815Z,146436.63
2022-10-18T18:53:28.625Z,146422.00
2022-10-18T18:56:09.420Z,146402.50
2022-10-18T18:58:38.512Z,146375.69
2022-10-18T19:01:19.716Z,146352.56
2022-10-18T19:03:50.303Z,146351.34
2022-10-18T19:06:20.501Z,146326.97
2022-10-18T19:08:48.726Z,146292.91
2022-10-18T19:11:21.242Z,146334.31
2022-10-18T19:13:49.140Z,146333.09
2022-10-18T19:16:28.364Z,146312.38
2022-10-18T19:19:17.353Z,146291.72
2022-10-18T19:21:47.246Z,146274.66
2022-10-18T19:24:14.552Z,146246.66
2022-10-18T19:26:45.212Z,146264.91
2022-10-18T19:29:15.437Z,146266.13
2022-10-18T19:31:43.680Z,146246.66
2022-10-18T19:34:12.525Z,146227.22
2022-10-18T19:36:41.009Z,146218.69
2022-10-18T19:39:20.798Z,146217.44
2022-10-18T19:41:50.528Z,146227.22
2022-10-18T19:44:19.540Z,146236.94
2022-10-18T19:46:47.490Z,146228.41
2022-10-18T19:49:15.159Z,146232.06
2022-10-18T19:51:42.630Z,146207.69
2022-10-18T19:54:11.639Z,146207.69
2022-10-18T19:56:39.188Z,146197.97
2022-10-18T19:59:06.185Z,146168.78
2022-10-18T20:01:33.584Z,146157.81
2022-10-18T20:04:03.703Z,146093.31
2022-10-18T20:06:31.665Z,146112.78
2022-10-18T20:08:59.303Z,146112.78
2022-10-18T20:11:28.769Z,146110.38
2022-10-18T20:13:56.647Z,146120.09
2022-10-18T20:16:28.325Z,146127.41
2022-10-18T20:18:58.136Z,146095.78
2022-10-18T20:21:26.556Z,146081.19
2022-10-18T20:23:53.909Z,146076.28
2022-10-18T20:26:21.901Z,146098.19
2022-10-18T20:28:56.215Z,146107.91
2022-10-18T20:31:29.172Z,146100.63
2022-10-18T20:33:59.283Z,146095.78
2022-10-18T20:36:27.809Z,146101.84
2022-10-18T20:38:55.260Z,146093.31
2022-10-18T20:41:25.444Z,146031.25
2022-10-18T20:43:59.002Z,146094.53
2022-10-18T20:46:29.267Z,145998.38
2022-10-18T20:48:56.725Z,146095.78
2022-10-18T20:51:24.105Z,146110.38
2022-10-18T20:53:51.456Z,146088.47
2022-10-18T20:56:21.562Z,146117.69
2022-10-18T20:58:51.424Z,146090.91
2022-10-18T21:01:21.162Z,146098.19
2022-10-18T21:03:50.273Z,146083.59
2022-10-18T21:06:23.181Z,146020.28
2022-10-18T21:09:14.484Z,146093.31
2022-10-18T21:11:44.857Z,146054.38
2022-10-18T21:14:20.333Z,146098.19
2022-10-18T21:16:48.318Z,146104.31
2022-10-18T21:19:20.961Z,146083.59
2022-10-18T21:21:50.272Z,146088.47
2022-10-18T21:24:19.067Z,146115.22
2022-10-18T21:26:47.645Z,146093.31
2022-10-18T21:29:20.728Z,146044.66
2022-10-18T21:31:49.450Z,146071.38
2022-10-18T21:34:17.440Z,146011.78
2022-10-18T21:36:46.233Z,146034.88
2022-10-18T21:39:19.608Z,146023.94
2022-10-18T21:41:47.361Z,146054.38
2022-10-18T21:44:15.305Z,146028.81
2022-10-18T21:46:43.212Z,146032.47
2022-10-18T21:49:10.908Z,145932.72
2022-10-18T21:51:38.317Z,146017.88
2022-10-18T21:54:07.712Z,146030.00
2022-10-18T21:56:35.929Z,146000.84
2022-10-18T21:59:04.485Z,146008.16
2022-10-18T22:01:37.016Z,145994.78
2022-10-18T22:04:07.088Z,146010.56
2022-10-18T22:09:09.987Z,145993.53
2022-10-18T22:11:40.972Z,145981.38
2022-10-18T22:14:08.534Z,145977.72
2022-10-18T22:16:35.852Z,145952.19
2022-10-18T22:19:04.932Z,145936.38
2022-10-18T22:21:33.212Z,145938.78
2022-10-18T22:24:00.433Z,145918.16
2022-10-18T22:26:28.558Z,145905.97
2022-10-18T22:29:01.121Z,145904.78
2022-10-18T22:31:29.548Z,145913.28
2022-10-18T22:33:59.008Z,145845.19
2022-10-18T22:36:26.989Z,145898.69
2022-10-18T22:38:54.090Z,145825.75
2022-10-18T22:41:21.522Z,145869.50
2022-10-18T22:43:50.853Z,145864.63
2022-10-18T22:46:18.101Z,145745.50
2022-10-18T22:48:45.133Z,145850.06
2022-10-18T22:51:12.685Z,145709.06
2022-10-18T22:53:40.888Z,145831.81
2022-10-18T22:56:11.134Z,145835.47
2022-10-18T22:58:38.177Z,145801.41
2022-10-18T23:01:08.503Z,145750.38
2022-10-18T23:03:36.837Z,145807.53
2022-10-18T23:06:04.996Z,145781.97
2022-10-18T23:08:32.322Z,145772.25
2022-10-18T23:11:00.085Z,145778.31
2022-10-18T23:13:27.750Z,145799.00
2022-10-18T23:16:04.363Z,145813.59
2022-10-18T23:18:32.914Z,145811.13
2022-10-18T23:21:05.583Z,145710.25
2022-10-18T23:23:35.397Z,145772.25
2022-10-18T23:26:07.926Z,145747.97
2022-10-18T23:28:35.902Z,145762.53
2022-10-18T23:31:07.983Z,145752.81
2022-10-18T23:33:35.173Z,145672.56
2022-10-18T23:36:02.684Z,145696.84
2022-10-18T23:38:31.041Z,145645.81
2022-10-18T23:40:58.278Z,145694.44
2022-10-18T23:43:25.494Z,145664.03
2022-10-18T23:45:52.563Z,145655.53
2022-10-18T23:48:19.617Z,145620.31
2022-10-18T23:50:47.434Z,145614.22
2022-10-18T23:53:14.642Z,145552.28
2022-10-18T23:55:55.566Z,145592.34
2022-10-18T23:58:23.510Z,145610.56
